createdAt,value
2019-03-11T00:00:32.990Z,2.60
2019-03-11T00:03:03.166Z,2.27
2019-03-11T00:05:34.477Z,2.20
2019-03-11T00:08:04.647Z,2.27
2019-03-11T00:10:34.811Z,3.60
2019-03-11T00:13:04.979Z,2.40
2019-03-11T00:15:35.270Z,2.37
2019-03-11T00:18:06.406Z,2.20
2019-03-11T00:20:36.558Z,2.17
2019-03-11T00:23:06.813Z,2.00
2019-03-11T00:25:37.088Z,1.93
2019-03-11T00:28:07.250Z,2.27
2019-03-11T00:30:37.400Z,1.80
2019-03-11T00:33:07.636Z,2.07
2019-03-11T00:35:37.791Z,1.97
2019-03-11T00:38:07.964Z,2.00
2019-03-11T00:40:38.096Z,1.83
2019-03-11T00:43:15.501Z,1.60
2019-03-11T00:45:45.629Z,2.33
2019-03-11T00:48:15.792Z,1.40
2019-03-11T00:50:45.985Z,1.63
2019-03-11T00:53:16.252Z,1.47
2019-03-11T00:55:46.392Z,2.13
2019-03-11T00:58:16.540Z,1.83
2019-03-11T01:00:46.679Z,2.40
2019-03-11T01:03:16.848Z,1.57
2019-03-11T01:05:47.008Z,1.90
2019-03-11T01:08:18.256Z,2.73
2019-03-11T01:10:48.429Z,2.47
2019-03-11T01:13:18.603Z,3.00
2019-03-11T01:15:48.745Z,2.90
2019-03-11T01:18:18.920Z,2.30
2019-03-11T01:20:49.052Z,3.13
2019-03-11T01:23:19.206Z,2.80
2019-03-11T01:25:49.377Z,2.67
2019-03-11T01:28:19.524Z,2.40
2019-03-11T01:30:49.745Z,2.20
2019-03-11T01:33:19.908Z,2.33
2019-03-11T01:35:50.039Z,2.10
2019-03-11T01:38:20.220Z,2.13
2019-03-11T01:40:50.372Z,2.00
2019-03-11T01:43:20.539Z,1.83
2019-03-11T01:45:50.703Z,2.40
2019-03-11T01:48:20.880Z,2.67
2019-03-11T01:50:51.018Z,2.63
2019-03-11T01:53:21.184Z,2.00
2019-03-11T01:55:51.347Z,1.90
2019-03-11T01:58:21.512Z,1.63
2019-03-11T02:00:52.727Z,2.23
2019-03-11T02:03:22.891Z,1.80
2019-03-11T02:05:53.049Z,2.53
2019-03-11T02:08:23.295Z,2.13
2019-03-11T02:10:53.423Z,2.23
2019-03-11T02:13:23.611Z,2.33
2019-03-11T02:15:53.751Z,2.40
2019-03-11T02:18:23.938Z,1.90
2019-03-11T02:20:54.083Z,1.83
2019-03-11T02:23:24.248Z,2.80
2019-03-11T02:25:54.389Z,2.50
2019-03-11T02:28:24.556Z,3.07
2019-03-11T02:30:54.772Z,2.50
2019-03-11T02:33:24.933Z,2.40
2019-03-11T02:35:55.107Z,2.20
2019-03-11T02:38:25.259Z,2.30
2019-03-11T02:40:55.413Z,2.27
2019-03-11T02:43:25.589Z,2.10
2019-03-11T02:45:55.753Z,2.67
2019-03-11T02:48:25.913Z,3.27
2019-03-11T02:50:56.076Z,3.17
2019-03-11T02:53:26.254Z,2.50
2019-03-11T02:55:56.468Z,2.57
2019-03-11T02:58:26.627Z,2.30
2019-03-11T03:01:21.812Z,2.13
2019-03-11T03:04:13.681Z,2.53
2019-03-11T03:06:43.815Z,2.73
2019-03-11T03:09:15.200Z,3.00
2019-03-11T03:11:45.409Z,2.20
2019-03-11T03:14:16.549Z,2.50
2019-03-11T03:16:46.706Z,1.90
2019-03-11T03:19:16.863Z,2.80
2019-03-11T03:21:47.004Z,2.30
2019-03-11T03:24:18.279Z,2.07
2019-03-11T03:26:48.435Z,2.93
2019-03-11T03:29:18.602Z,2.20
2019-03-11T03:31:48.764Z,2.40
2019-03-11T03:34:19.041Z,2.27
2019-03-11T03:36:49.204Z,2.77
2019-03-11T03:39:19.373Z,2.37
2019-03-11T03:41:49.523Z,2.37
2019-03-11T03:44:19.731Z,2.53
2019-03-11T03:46:49.915Z,2.30
2019-03-11T03:49:20.128Z,3.00
2019-03-11T03:51:50.278Z,2.20
2019-03-11T03:54:20.447Z,2.80
2019-03-11T03:56:53.850Z,2.30
2019-03-11T03:59:22.442Z,1.73
2019-03-11T04:01:52.574Z,2.20
2019-03-11T04:04:22.745Z,1.90
2019-03-11T04:06:52.888Z,1.87
2019-03-11T04:09:23.044Z,1.70
2019-03-11T04:11:53.187Z,1.63
2019-03-11T04:14:23.369Z,1.90
2019-03-11T04:16:53.516Z,2.00
2019-03-11T04:19:23.672Z,1.83
2019-03-11T04:21:54.346Z,2.40
2019-03-11T04:24:24.607Z,1.70
2019-03-11T04:26:55.339Z,2.00
2019-03-11T04:29:25.517Z,1.87
2019-03-11T04:31:55.644Z,1.60
2019-03-11T04:34:25.800Z,2.27
2019-03-11T04:36:55.948Z,2.40
2019-03-11T04:39:26.108Z,1.93
2019-03-11T04:41:56.244Z,2.30
2019-03-11T04:44:26.392Z,2.50
2019-03-11T04:46:56.529Z,2.13
2019-03-11T04:49:26.695Z,2.67
2019-03-11T04:51:56.860Z,2.60
2019-03-11T04:54:27.012Z,3.00
2019-03-11T04:56:57.173Z,2.37
2019-03-11T04:59:27.328Z,3.13
2019-03-11T05:01:57.464Z,2.83
2019-03-11T05:04:27.611Z,2.27
2019-03-11T05:06:57.775Z,2.53
2019-03-11T05:09:27.945Z,2.73
2019-03-11T05:11:58.091Z,2.87
2019-03-11T05:14:28.283Z,2.50
2019-03-11T05:16:58.456Z,2.33
2019-03-11T05:19:28.592Z,2.60
2019-03-11T05:21:58.747Z,2.57
2019-03-11T05:24:28.890Z,3.07
2019-03-11T05:26:59.148Z,2.70
2019-03-11T05:29:29.296Z,2.50
2019-03-11T05:31:59.457Z,2.10
2019-03-11T05:34:29.599Z,2.30
2019-03-11T05:36:59.767Z,1.77
2019-03-11T05:39:29.904Z,2.07
2019-03-11T05:42:00.071Z,1.83
2019-03-11T05:44:30.204Z,1.50
2019-03-11T05:47:00.369Z,1.50
2019-03-11T05:49:30.531Z,1.70
2019-03-11T05:52:00.797Z,1.50
2019-03-11T05:54:31.992Z,1.60
2019-03-11T05:57:02.161Z,1.87
2019-03-11T05:59:32.287Z,1.80
2019-03-11T06:02:02.604Z,2.73
2019-03-11T06:04:33.136Z,1.90
2019-03-11T06:07:03.369Z,2.43
2019-03-11T06:09:33.544Z,2.90
2019-03-11T06:12:03.814Z,2.20
2019-03-11T06:14:34.010Z,2.43
2019-03-11T06:17:04.204Z,2.30
2019-03-11T06:19:34.377Z,3.10
2019-03-11T06:22:15.123Z,3.53
2019-03-11T06:24:45.263Z,3.10
2019-03-11T06:27:15.407Z,3.63
2019-03-11T06:29:45.555Z,4.20
2019-03-11T06:32:15.744Z,4.23
2019-03-11T06:34:45.907Z,4.40
2019-03-11T06:37:16.111Z,4.80
2019-03-11T06:39:46.266Z,4.77
2019-03-11T06:42:16.435Z,5.13
2019-03-11T06:44:47.674Z,5.07
2019-03-11T06:47:17.840Z,4.87
2019-03-11T06:49:47.980Z,6.80
2019-03-11T06:52:18.154Z,5.07
2019-03-11T06:54:48.299Z,5.10
2019-03-11T06:57:18.468Z,5.67
2019-03-11T06:59:48.639Z,5.37
2019-03-11T07:02:18.825Z,7.77
2019-03-11T07:04:48.970Z,5.57
2019-03-11T07:07:19.120Z,6.07
2019-03-11T07:09:49.367Z,5.50
2019-03-11T07:12:19.525Z,4.80
2019-03-11T07:14:49.667Z,4.57
2019-03-11T07:17:20.900Z,4.47
2019-03-11T07:19:51.039Z,4.30
2019-03-11T07:22:21.198Z,4.03
2019-03-11T07:24:51.336Z,5.00
2019-03-11T07:27:21.517Z,4.03
2019-03-11T07:29:51.686Z,4.57
2019-03-11T07:32:21.877Z,4.20
2019-03-11T07:34:52.020Z,5.00
2019-03-11T07:37:22.266Z,4.30
2019-03-11T07:39:52.549Z,5.20
2019-03-11T07:42:22.707Z,4.97
2019-03-11T07:44:52.967Z,4.33
2019-03-11T07:47:23.172Z,4.30
2019-03-11T07:49:53.326Z,4.13
2019-03-11T07:52:23.491Z,4.40
2019-03-11T07:54:53.691Z,4.80
2019-03-11T07:57:23.849Z,4.60
2019-03-11T07:59:54.011Z,5.30
2019-03-11T08:02:24.193Z,4.30
2019-03-11T08:04:54.320Z,5.70
2019-03-11T08:07:24.504Z,5.43
2019-03-11T08:09:56.438Z,5.80
2019-03-11T08:12:26.620Z,5.37
2019-03-11T08:14:56.784Z,5.47
2019-03-11T08:17:27.003Z,4.17
2019-03-11T08:19:58.799Z,6.03
2019-03-11T08:22:28.980Z,5.70
2019-03-11T08:25:00.084Z,5.40
2019-03-11T08:27:30.422Z,4.80
2019-03-11T08:30:00.578Z,4.70
2019-03-11T08:32:30.741Z,4.10
2019-03-11T08:35:00.894Z,5.30
2019-03-11T08:37:31.062Z,4.63
2019-03-11T08:40:01.200Z,4.53
2019-03-11T08:42:32.452Z,4.83
2019-03-11T08:45:02.608Z,4.03
2019-03-11T08:47:32.877Z,5.77
2019-03-11T08:50:03.199Z,5.57
2019-03-11T08:52:33.518Z,4.27
2019-03-11T08:55:03.784Z,4.77
2019-03-11T08:57:33.950Z,4.37
2019-03-11T09:00:04.784Z,4.80
2019-03-11T09:02:35.892Z,4.27
2019-03-11T09:05:07.160Z,4.60
2019-03-11T09:07:38.265Z,5.10
2019-03-11T09:10:10.787Z,5.57
2019-03-11T09:12:41.036Z,4.73
2019-03-11T09:15:12.662Z,5.63
2019-03-11T09:17:42.855Z,5.90
2019-03-11T09:20:13.461Z,4.60
2019-03-11T09:22:43.649Z,4.60
2019-03-11T09:25:14.513Z,4.77
2019-03-11T09:27:44.712Z,4.00
2019-03-11T09:30:17.050Z,3.93
2019-03-11T09:32:47.292Z,3.60
2019-03-11T09:35:17.689Z,3.77
2019-03-11T09:37:47.878Z,3.83
2019-03-11T09:40:18.015Z,4.00
2019-03-11T09:42:48.186Z,4.17
2019-03-11T09:45:19.637Z,3.63
2019-03-11T09:47:49.865Z,3.20
2019-03-11T09:50:20.208Z,2.77
2019-03-11T09:52:50.372Z,3.50
2019-03-11T09:55:20.530Z,3.63
2019-03-11T09:57:50.715Z,3.20
2019-03-11T10:00:21.768Z,3.07
2019-03-11T10:02:53.498Z,2.17
2019-03-11T10:05:23.883Z,2.40
2019-03-11T10:07:54.236Z,2.90
2019-03-11T10:10:24.680Z,2.30
2019-03-11T10:12:54.848Z,2.07
2019-03-11T10:15:25.186Z,2.07
2019-03-11T10:17:55.407Z,1.90
2019-03-11T10:20:25.544Z,2.07
2019-03-11T10:22:55.728Z,1.80
2019-03-11T10:25:25.909Z,1.60
2019-03-11T10:27:56.251Z,1.90
2019-03-11T10:30:26.415Z,1.70
2019-03-11T10:32:56.672Z,1.73
2019-03-11T10:35:31.880Z,2.33
2019-03-11T10:37:58.814Z,2.03
2019-03-11T10:40:29.027Z,2.73
2019-03-11T10:42:59.192Z,2.00
2019-03-11T10:45:31.780Z,3.70
2019-03-11T10:48:01.255Z,2.30
2019-03-11T10:50:31.410Z,2.13
2019-03-11T10:53:01.592Z,1.93
2019-03-11T10:55:31.754Z,3.50
2019-03-11T10:58:02.390Z,2.47
2019-03-11T11:00:32.891Z,1.90
2019-03-11T11:03:03.061Z,1.63
2019-03-11T11:05:33.325Z,2.10
2019-03-11T11:08:03.507Z,2.37
2019-03-11T11:10:33.661Z,2.83
2019-03-11T11:13:03.821Z,1.93
2019-03-11T11:15:33.974Z,1.93
2019-03-11T11:18:04.132Z,1.67
2019-03-11T11:20:34.398Z,2.13
2019-03-11T11:23:04.750Z,1.63
2019-03-11T11:25:35.062Z,1.77
2019-03-11T11:28:05.485Z,1.80
2019-03-11T11:30:35.632Z,1.93
2019-03-11T11:33:05.904Z,2.10
2019-03-11T11:35:36.047Z,1.50
2019-03-11T11:38:06.307Z,2.20
2019-03-11T11:40:36.564Z,2.00
2019-03-11T11:43:06.829Z,1.83
2019-03-11T11:45:37.033Z,2.03
2019-03-11T11:48:08.363Z,1.60
2019-03-11T11:50:38.764Z,1.80
2019-03-11T11:53:08.940Z,1.93
2019-03-11T11:55:39.180Z,1.50
2019-03-11T11:58:09.346Z,2.13
2019-03-11T12:00:40.912Z,1.63
2019-03-11T12:03:11.072Z,2.00
2019-03-11T12:05:41.231Z,2.00
2019-03-11T12:08:11.656Z,2.43
2019-03-11T12:10:41.804Z,1.83
2019-03-11T12:13:11.960Z,1.63
2019-03-11T12:15:42.118Z,2.10
2019-03-11T12:18:13.413Z,1.70
2019-03-11T12:20:43.584Z,2.00
2019-03-11T12:23:13.811Z,2.50
2019-03-11T12:25:43.978Z,1.83
2019-03-11T12:28:14.162Z,2.70
2019-03-11T12:30:44.407Z,2.03
2019-03-11T12:33:14.589Z,1.93
2019-03-11T12:35:44.824Z,2.13
2019-03-11T12:38:15.175Z,2.23
2019-03-11T12:40:45.303Z,2.30
2019-03-11T12:43:15.467Z,1.67
2019-03-11T12:45:46.711Z,2.00
2019-03-11T12:48:16.867Z,1.63
2019-03-11T12:50:47.019Z,2.00
2019-03-11T12:53:17.236Z,2.00
2019-03-11T12:55:47.395Z,2.13
2019-03-11T12:58:17.636Z,2.10
2019-03-11T13:00:47.787Z,1.43
2019-03-11T13:03:17.961Z,2.10
2019-03-11T13:05:48.098Z,1.80
2019-03-11T13:08:18.364Z,1.40
2019-03-11T13:10:48.509Z,1.80
2019-03-11T13:13:19.225Z,2.00
2019-03-11T13:15:49.637Z,1.87
2019-03-11T13:18:33.118Z,2.00
2019-03-11T13:21:12.316Z,1.57
2019-03-11T13:23:42.494Z,1.53
2019-03-11T13:26:12.652Z,1.70
2019-03-11T13:28:42.819Z,1.90
2019-03-11T13:31:12.963Z,2.37
2019-03-11T13:33:43.119Z,2.30
2019-03-11T13:36:13.570Z,1.70
2019-03-11T13:38:43.759Z,1.90
2019-03-11T13:41:13.918Z,2.00
2019-03-11T13:43:44.162Z,2.00
2019-03-11T13:46:14.381Z,1.93
2019-03-11T13:48:44.543Z,1.80
2019-03-11T13:51:14.720Z,2.27
2019-03-11T13:53:44.907Z,2.10
2019-03-11T13:56:15.192Z,1.73
2019-03-11T13:58:45.399Z,1.70
2019-03-11T14:01:15.537Z,1.60
2019-03-11T14:03:45.740Z,1.83
2019-03-11T14:06:15.950Z,1.90
2019-03-11T14:08:46.128Z,2.30
2019-03-11T14:11:16.280Z,1.87
2019-03-11T14:13:46.458Z,1.80
2019-03-11T14:16:16.644Z,1.60
2019-03-11T14:18:46.871Z,1.50
2019-03-11T14:21:25.298Z,2.13
2019-03-11T14:23:49.035Z,2.17
2019-03-11T14:26:19.211Z,2.20
2019-03-11T14:28:49.485Z,2.10
2019-03-11T14:31:19.648Z,1.93
2019-03-11T14:33:49.836Z,2.50
2019-03-11T14:36:20.397Z,2.13
2019-03-11T14:38:50.637Z,2.53
2019-03-11T14:41:20.963Z,2.50
2019-03-11T14:43:51.183Z,1.90
2019-03-11T14:46:22.596Z,2.03
2019-03-11T14:48:52.835Z,1.83
2019-03-11T14:51:23.056Z,2.10
2019-03-11T14:53:53.228Z,2.10
2019-03-11T14:56:23.416Z,2.40
2019-03-11T14:58:53.581Z,2.37
2019-03-11T15:01:23.896Z,1.83
2019-03-11T15:03:54.062Z,2.20
2019-03-11T15:06:24.935Z,2.03
2019-03-11T15:08:55.111Z,2.20
2019-03-11T15:11:25.453Z,2.50
2019-03-11T15:13:55.618Z,2.43
2019-03-11T15:16:25.868Z,1.90
2019-03-11T15:18:56.020Z,2.30
2019-03-11T15:21:26.231Z,2.27
2019-03-11T15:23:56.409Z,3.77
2019-03-11T15:26:26.644Z,2.67
2019-03-11T15:28:56.928Z,2.00
2019-03-11T15:31:27.233Z,2.17
2019-03-11T15:34:00.146Z,2.10
2019-03-11T15:36:33.714Z,2.20
2019-03-11T15:39:02.243Z,2.43
2019-03-11T15:41:35.847Z,2.00
2019-03-11T15:44:06.024Z,1.87
2019-03-11T15:46:39.559Z,2.00
2019-03-11T15:49:09.237Z,2.10
2019-03-11T15:51:39.392Z,2.23
2019-03-11T15:54:09.592Z,2.00
2019-03-11T15:56:39.843Z,2.03
2019-03-11T15:59:12.304Z,2.00
2019-03-11T16:01:42.512Z,1.90
2019-03-11T16:04:13.835Z,2.00
2019-03-11T16:06:44.167Z,2.17
2019-03-11T16:09:19.181Z,2.00
2019-03-11T16:11:46.307Z,2.27
2019-03-11T16:14:16.539Z,1.80
2019-03-11T16:16:46.723Z,2.37
2019-03-11T16:19:16.987Z,1.90
2019-03-11T16:21:47.233Z,1.70
2019-03-11T16:24:17.558Z,2.50
2019-03-11T16:26:47.747Z,2.30
2019-03-11T16:29:17.991Z,2.40
2019-03-11T16:31:48.292Z,2.00
2019-03-11T16:34:18.477Z,2.77
2019-03-11T16:36:48.638Z,2.27
2019-03-11T16:39:18.863Z,2.10
2019-03-11T16:41:49.028Z,2.90
2019-03-11T16:44:19.437Z,1.80
2019-03-11T16:46:49.604Z,1.80
2019-03-11T16:49:20.229Z,2.10
2019-03-11T16:51:50.452Z,2.00
2019-03-11T16:54:20.910Z,1.77
2019-03-11T16:56:51.274Z,1.97
2019-03-11T16:59:21.565Z,2.20
2019-03-11T17:01:51.922Z,2.20
2019-03-11T17:04:22.239Z,2.30
2019-03-11T17:06:52.538Z,1.80
2019-03-11T17:09:25.776Z,1.87
2019-03-11T17:11:55.929Z,2.33
2019-03-11T17:14:26.151Z,2.50
2019-03-11T17:16:56.304Z,3.13
2019-03-11T17:19:26.511Z,2.47
2019-03-11T17:21:59.560Z,1.70
2019-03-11T17:24:29.836Z,2.13
2019-03-11T17:27:00.243Z,2.50
2019-03-11T17:29:32.927Z,2.10
2019-03-11T17:32:03.428Z,2.20
2019-03-11T17:34:33.651Z,2.57
2019-03-11T17:37:03.887Z,2.70
2019-03-11T17:39:34.265Z,2.20
2019-03-11T17:42:04.440Z,2.50
2019-03-11T17:44:34.697Z,2.43
2019-03-11T17:47:04.914Z,1.70
2019-03-11T17:49:37.087Z,1.90
2019-03-11T17:52:09.368Z,2.13
2019-03-11T17:54:39.707Z,2.13
2019-03-11T17:57:10.055Z,2.30
2019-03-11T17:59:40.244Z,2.50
2019-03-11T18:02:10.777Z,2.97
2019-03-11T18:04:41.207Z,2.00
2019-03-11T18:07:12.459Z,2.33
2019-03-11T18:09:42.835Z,2.67
2019-03-11T18:12:13.161Z,2.37
2019-03-11T18:14:46.093Z,2.03
2019-03-11T18:17:17.388Z,2.30
2019-03-11T18:19:47.600Z,2.23
2019-03-11T18:22:17.780Z,2.10
2019-03-11T18:24:48.036Z,3.07
2019-03-11T18:27:18.232Z,2.60
2019-03-11T18:29:49.516Z,2.70
2019-03-11T18:32:20.580Z,2.00
2019-03-11T18:34:50.805Z,1.97
2019-03-11T18:37:22.008Z,2.17
2019-03-11T18:39:52.273Z,2.83
2019-03-11T18:42:26.320Z,3.17
2019-03-11T18:44:54.645Z,2.40
2019-03-11T18:47:24.800Z,2.43
2019-03-11T18:49:55.105Z,1.83
2019-03-11T18:52:25.352Z,2.70
2019-03-11T18:54:55.558Z,2.47
2019-03-11T18:57:25.847Z,2.63
2019-03-11T18:59:56.100Z,2.80
2019-03-11T19:02:26.264Z,2.20
2019-03-11T19:04:56.781Z,2.20
2019-03-11T19:07:27.036Z,2.27
2019-03-11T19:09:57.363Z,3.30
2019-03-11T19:12:27.571Z,2.60
2019-03-11T19:14:57.767Z,2.43
2019-03-11T19:17:28.036Z,3.30
2019-03-11T19:19:59.905Z,2.80
2019-03-11T19:22:30.416Z,2.27
2019-03-11T19:25:01.754Z,2.57
2019-03-11T19:27:32.205Z,3.70
2019-03-11T19:30:02.490Z,3.23
2019-03-11T19:32:32.891Z,3.23
2019-03-11T19:35:03.199Z,3.57
2019-03-11T19:37:34.308Z,3.00
2019-03-11T19:40:04.861Z,2.80
2019-03-11T19:42:35.242Z,3.40
2019-03-11T19:45:05.945Z,2.90
2019-03-11T19:47:36.289Z,2.80
2019-03-11T19:50:07.338Z,2.80
2019-03-11T19:52:37.726Z,2.97
2019-03-11T19:55:08.433Z,2.63
2019-03-11T19:57:38.818Z,1.90
2019-03-11T20:00:11.926Z,3.07
2019-03-11T20:02:42.393Z,2.70
2019-03-11T20:05:13.441Z,3.50
2019-03-11T20:07:43.863Z,2.93
2019-03-11T20:10:14.541Z,2.63
2019-03-11T20:12:44.847Z,3.23
2019-03-11T20:15:15.152Z,3.47
2019-03-11T20:17:45.644Z,3.70
2019-03-11T20:20:16.085Z,3.00
2019-03-11T20:22:46.403Z,3.00
2019-03-11T20:25:35.736Z,3.90
2019-03-11T20:28:06.141Z,3.17
2019-03-11T20:30:36.627Z,2.80
2019-03-11T20:33:07.008Z,3.10
2019-03-11T20:35:37.225Z,3.00
2019-03-11T20:38:07.597Z,2.90
2019-03-11T20:40:37.866Z,2.90
2019-03-11T20:43:08.325Z,2.87
2019-03-11T20:45:38.544Z,3.13
2019-03-11T20:48:08.859Z,2.47
2019-03-11T20:50:42.403Z,3.33
2019-03-11T20:53:11.052Z,2.50
2019-03-11T20:55:41.276Z,3.10
2019-03-11T20:58:12.694Z,3.03
2019-03-11T21:00:43.248Z,3.03
2019-03-11T21:03:13.557Z,3.53
2019-03-11T21:05:44.416Z,2.83
2019-03-11T21:08:14.812Z,3.23
2019-03-11T21:10:45.089Z,2.53
2019-03-11T21:13:15.333Z,2.40
2019-03-11T21:15:47.348Z,2.40
2019-03-11T21:18:17.613Z,3.13
2019-03-11T21:20:47.869Z,3.03
2019-03-11T21:23:18.148Z,3.00
2019-03-11T21:25:48.471Z,3.20
2019-03-11T21:28:19.186Z,3.40
2019-03-11T21:30:49.437Z,3.07
2019-03-11T21:33:19.819Z,2.70
2019-03-11T21:35:50.078Z,3.20
2019-03-11T21:38:20.417Z,3.30
2019-03-11T21:40:50.708Z,2.70
2019-03-11T21:43:21.064Z,2.70
2019-03-11T21:45:51.247Z,2.50
2019-03-11T21:48:21.489Z,3.60
2019-03-11T21:50:51.768Z,3.53
2019-03-11T21:53:22.097Z,6.30
2019-03-11T21:55:52.317Z,4.17
2019-03-11T21:58:22.529Z,4.20
2019-03-11T22:00:54.676Z,7.10
2019-03-11T22:03:26.872Z,4.23
2019-03-11T22:05:57.044Z,3.70
2019-03-11T22:08:27.312Z,3.60
2019-03-11T22:10:57.472Z,3.43
2019-03-11T22:13:27.692Z,4.30
2019-03-11T22:15:57.875Z,3.03
2019-03-11T22:18:29.259Z,3.20
2019-03-11T22:20:59.434Z,3.17
2019-03-11T22:23:29.617Z,3.40
2019-03-11T22:25:59.785Z,2.60
2019-03-11T22:28:29.952Z,3.57
2019-03-11T22:31:01.020Z,3.17
2019-03-11T22:33:31.236Z,2.43
2019-03-11T22:36:01.431Z,2.67
2019-03-11T22:38:31.603Z,3.17
2019-03-11T22:41:01.881Z,3.03
2019-03-11T22:43:34.335Z,3.53
2019-03-11T22:46:04.073Z,3.20
2019-03-11T22:48:34.290Z,5.00
2019-03-11T22:51:04.461Z,3.57
2019-03-11T22:53:34.735Z,4.13
2019-03-11T22:56:05.084Z,4.97
2019-03-11T22:58:35.281Z,7.10
2019-03-11T23:01:07.290Z,4.50
2019-03-11T23:03:37.532Z,8.30
2019-03-11T23:06:07.806Z,8.60
2019-03-11T23:08:38.082Z,7.07
2019-03-11T23:11:08.249Z,5.60
2019-03-11T23:13:38.427Z,6.47
2019-03-11T23:16:08.559Z,6.33
2019-03-11T23:18:38.749Z,5.13
2019-03-11T23:21:08.895Z,7.00
2019-03-11T23:23:39.065Z,5.80
2019-03-11T23:26:09.196Z,7.07
2019-03-11T23:28:39.405Z,5.87
2019-03-11T23:31:09.648Z,7.33
2019-03-11T23:33:39.820Z,6.43
2019-03-11T23:36:10.017Z,6.47
2019-03-11T23:38:40.184Z,7.13
2019-03-11T23:41:10.327Z,5.57
2019-03-11T23:43:40.504Z,6.87
2019-03-11T23:46:10.665Z,6.70
2019-03-11T23:48:40.840Z,9.37
2019-03-11T23:51:10.986Z,6.00
2019-03-11T23:53:41.163Z,6.13
2019-03-11T23:56:11.343Z,5.13
2019-03-11T23:58:41.500Z,5.90
